Weather at Hoy/Longhope Airfield [CLOSED]

Public forecast

Using degrees Celsius for public forecast. Weather courtesy of forecast.io.

Closest aviation weather report (METAR) to Hoy/Longhope Airfield

Closest report is Kirkwall Airport, 13.9 nm (25.7 km) NE. Retrieved 2021/07/28 00:20 UTC (17 minutes ago):

EGPA 280020Z AUTO 06005KT 0350 FG VV/// 12/12 Q1006

Closest aviation forecast (TAF) to Hoy/Longhope Airfield

Closest forecast is RAF Lossiemouth, 65.4 nm (121.0 km) S. Retrieved 2021-07-28 00:37 UTC (26 seconds ago):

TAF EGQS 272230Z 2800/2818 08010KT 9999 BKN030 PROB40 TEMPO 2800/2809 5000 SHRA BKN020CB PROB30 TEMPO 2800/2809 3000 BR SCT004 BKN007 TEMPO 2809/2818 5000 SHRA SCT006 BKN010CB PROB30 2815/2818 1500 BR VCFG BKN002